createdAt,value
2019-03-27T00:00:28.901Z,-70
2019-03-27T00:02:57.486Z,-71
2019-03-27T00:05:26.045Z,-71
2019-03-27T00:07:54.610Z,-72
2019-03-27T00:10:23.134Z,-71
2019-03-27T00:12:51.702Z,-73
2019-03-27T00:15:20.237Z,-73
2019-03-27T00:17:48.813Z,-73
2019-03-27T00:20:17.373Z,-73
2019-03-27T00:22:45.930Z,-73
2019-03-27T00:25:14.484Z,-71
2019-03-27T00:27:43.066Z,-71
2019-03-27T00:30:11.771Z,-72
2019-03-27T00:32:40.335Z,-71
2019-03-27T00:35:09.818Z,-72
2019-03-27T00:37:38.378Z,-74
2019-03-27T00:40:08.119Z,-71
2019-03-27T00:42:36.667Z,-71
2019-03-27T00:45:06.465Z,-73
2019-03-27T00:47:35.007Z,-72
2019-03-27T00:50:03.910Z,-71
2019-03-27T00:52:32.456Z,-73
2019-03-27T00:55:01.026Z,-73
2019-03-27T00:57:29.556Z,-70
2019-03-27T00:59:58.103Z,-71
2019-03-27T01:02:26.626Z,-72
2019-03-27T01:04:55.202Z,-72
2019-03-27T01:07:23.854Z,-73
2019-03-27T01:09:52.425Z,-72
2019-03-27T01:12:20.987Z,-73
2019-03-27T01:14:49.606Z,-73
2019-03-27T01:17:18.170Z,-72
2019-03-27T01:19:46.750Z,-71
2019-03-27T01:22:15.346Z,-71
2019-03-27T01:24:43.925Z,-70
2019-03-27T01:27:12.865Z,-72
2019-03-27T01:29:41.429Z,-72
2019-03-27T01:32:09.984Z,-73
2019-03-27T01:34:38.945Z,-72
2019-03-27T01:37:07.512Z,-73
2019-03-27T01:39:36.087Z,-72
2019-03-27T01:42:04.639Z,-71
2019-03-27T01:44:33.225Z,-71
2019-03-27T01:47:01.772Z,-72
2019-03-27T01:49:30.328Z,-72
2019-03-27T01:51:58.864Z,-71
2019-03-27T01:54:27.443Z,-70
2019-03-27T01:56:55.977Z,-71
2019-03-27T01:59:24.544Z,-72
2019-03-27T02:01:53.106Z,-72
2019-03-27T02:04:21.669Z,-71
2019-03-27T02:06:50.204Z,-71
2019-03-27T02:09:18.767Z,-72
2019-03-27T02:11:47.313Z,-73
2019-03-27T02:14:16.058Z,-72
2019-03-27T02:16:44.602Z,-72
2019-03-27T02:19:13.180Z,-71
2019-03-27T02:21:41.745Z,-70
2019-03-27T02:24:10.350Z,-71
2019-03-27T02:26:39.012Z,-72
2019-03-27T02:29:07.647Z,-73
2019-03-27T02:31:36.206Z,-72
2019-03-27T02:34:04.742Z,-72
2019-03-27T02:36:33.291Z,-72
2019-03-27T02:39:01.814Z,-72
2019-03-27T02:41:30.370Z,-72
2019-03-27T02:43:58.934Z,-72
2019-03-27T02:46:27.546Z,-70
2019-03-27T02:48:56.057Z,-72
2019-03-27T02:51:25.011Z,-73
2019-03-27T02:53:53.541Z,-73
2019-03-27T02:56:22.136Z,-72
2019-03-27T02:58:50.663Z,-72
2019-03-27T03:01:19.250Z,-70
2019-03-27T03:03:47.760Z,-71
2019-03-27T03:06:16.302Z,-70
2019-03-27T03:08:44.875Z,-72
2019-03-27T03:11:13.692Z,-71
2019-03-27T03:13:42.224Z,-71
2019-03-27T03:16:10.804Z,-72
2019-03-27T03:18:39.449Z,-72
2019-03-27T03:21:08.000Z,-70
2019-03-27T03:23:36.554Z,-70
2019-03-27T03:26:05.106Z,-72
2019-03-27T03:28:33.679Z,-71
2019-03-27T03:31:02.253Z,-71
2019-03-27T03:33:30.982Z,-71
2019-03-27T03:35:59.560Z,-72
2019-03-27T03:38:28.085Z,-71
2019-03-27T03:40:56.828Z,-70
2019-03-27T03:43:25.396Z,-70
2019-03-27T03:45:53.946Z,-71
2019-03-27T03:48:22.468Z,-69
2019-03-27T03:50:53.739Z,-70
2019-03-27T03:53:23.076Z,-70
2019-03-27T03:55:53.459Z,-69
2019-03-27T03:58:25.037Z,-71
2019-03-27T04:00:54.095Z,-70
2019-03-27T04:03:28.593Z,-70
2019-03-27T04:05:57.155Z,-71
2019-03-27T04:08:25.705Z,-70
2019-03-27T04:10:54.269Z,-72
2019-03-27T04:13:22.811Z,-72
2019-03-27T04:15:51.456Z,-71
2019-03-27T04:18:20.033Z,-72
2019-03-27T04:20:48.595Z,-73
2019-03-27T04:23:17.179Z,-71
2019-03-27T04:26:07.907Z,-71
2019-03-27T04:28:16.239Z,-70
2019-03-27T04:30:44.773Z,-71
2019-03-27T04:33:13.393Z,-70
2019-03-27T04:35:42.034Z,-72
2019-03-27T04:38:10.610Z,-71
2019-03-27T04:40:39.180Z,-71
2019-03-27T04:43:07.710Z,-71
2019-03-27T04:45:36.334Z,-72
2019-03-27T04:48:04.891Z,-72
2019-03-27T04:50:33.443Z,-70
2019-03-27T04:53:02.004Z,-72
2019-03-27T04:55:30.561Z,-72
2019-03-27T04:57:59.114Z,-71
2019-03-27T05:00:27.630Z,-72
2019-03-27T05:02:56.169Z,-72
2019-03-27T05:05:24.732Z,-73
2019-03-27T05:07:53.317Z,-71
2019-03-27T05:10:21.880Z,-71
2019-03-27T05:12:50.438Z,-71
2019-03-27T05:15:19.015Z,-71
2019-03-27T05:17:47.566Z,-72
2019-03-27T05:20:16.131Z,-71
2019-03-27T05:22:44.783Z,-72
2019-03-27T05:25:13.323Z,-74
2019-03-27T05:27:41.963Z,-72
2019-03-27T05:30:11.608Z,-72
2019-03-27T05:32:40.203Z,-71
2019-03-27T05:35:09.122Z,-73
2019-03-27T05:37:37.671Z,-73
2019-03-27T05:40:07.697Z,-71
2019-03-27T05:42:36.242Z,-72
2019-03-27T05:45:05.470Z,-73
2019-03-27T05:47:34.037Z,-72
2019-03-27T05:50:02.757Z,-72
2019-03-27T05:52:31.349Z,-71
2019-03-27T05:54:59.873Z,-73
2019-03-27T05:57:28.459Z,-72
2019-03-27T05:59:56.999Z,-72
2019-03-27T06:02:25.561Z,-71
2019-03-27T06:04:54.096Z,-72
2019-03-27T06:07:22.633Z,-72
2019-03-27T06:09:51.189Z,-73
2019-03-27T06:12:19.890Z,-71
2019-03-27T06:14:48.438Z,-72
2019-03-27T06:17:17.015Z,-71
2019-03-27T06:19:45.544Z,-70
2019-03-27T06:22:15.243Z,-72
2019-03-27T06:24:43.929Z,-73
2019-03-27T06:27:12.497Z,-72
2019-03-27T06:29:41.057Z,-71
2019-03-27T06:32:09.626Z,-74
2019-03-27T06:34:38.184Z,-71
2019-03-27T06:37:06.782Z,-73
2019-03-27T06:39:35.310Z,-75
2019-03-27T06:42:03.882Z,-73
2019-03-27T06:44:32.443Z,-70
2019-03-27T06:47:01.019Z,-72
2019-03-27T06:49:29.638Z,-72
2019-03-27T06:51:58.228Z,-71
2019-03-27T06:54:26.841Z,-72
2019-03-27T06:56:55.378Z,-73
2019-03-27T06:59:24.720Z,-75
2019-03-27T07:01:53.287Z,-74
2019-03-27T07:04:21.845Z,-72
2019-03-27T07:06:50.429Z,-73
2019-03-27T07:09:18.994Z,-71
2019-03-27T07:11:47.561Z,-69
2019-03-27T07:14:16.131Z,-71
2019-03-27T07:16:44.666Z,-71
2019-03-27T07:19:13.211Z,-72
2019-03-27T07:21:41.751Z,-74
2019-03-27T07:24:10.335Z,-70
2019-03-27T07:26:38.875Z,-70
2019-03-27T07:29:07.442Z,-69
2019-03-27T07:31:35.989Z,-70
2019-03-27T07:34:04.579Z,-66
2019-03-27T07:36:33.129Z,-66
2019-03-27T07:39:10.812Z,-66
2019-03-27T07:41:32.307Z,-69
2019-03-27T07:44:00.919Z,-68
2019-03-27T07:46:29.479Z,-66
2019-03-27T07:48:58.072Z,-66
2019-03-27T07:51:26.609Z,-68
2019-03-27T07:53:55.148Z,-69
2019-03-27T07:56:23.692Z,-65
2019-03-27T07:58:52.272Z,-66
2019-03-27T08:01:20.827Z,-66
2019-03-27T08:03:49.394Z,-66
2019-03-27T08:06:17.948Z,-68
2019-03-27T08:08:46.526Z,-67
2019-03-27T08:11:15.095Z,-67
2019-03-27T08:13:43.643Z,-69
2019-03-27T08:16:12.190Z,-67
2019-03-27T08:18:40.736Z,-66
2019-03-27T08:21:09.342Z,-67
2019-03-27T08:23:37.910Z,-68
2019-03-27T08:26:06.517Z,-65
2019-03-27T08:28:35.104Z,-65
2019-03-27T08:31:03.673Z,-67
2019-03-27T08:33:32.235Z,-66
2019-03-27T08:36:00.817Z,-67
2019-03-27T08:38:29.376Z,-67
2019-03-27T08:40:57.924Z,-66
2019-03-27T08:43:26.468Z,-66
2019-03-27T08:45:55.196Z,-71
2019-03-27T08:48:23.856Z,-68
2019-03-27T08:50:52.475Z,-68
2019-03-27T08:53:21.020Z,-66
2019-03-27T08:55:49.564Z,-67
2019-03-27T08:58:18.112Z,-67
2019-03-27T09:00:49.149Z,-67
2019-03-27T09:03:18.439Z,-67
2019-03-27T09:05:47.132Z,-66
2019-03-27T09:08:15.784Z,-67
2019-03-27T09:10:44.347Z,-66
2019-03-27T09:13:12.921Z,-66
2019-03-27T09:15:41.557Z,-66
2019-03-27T09:18:10.201Z,-66
2019-03-27T09:20:38.653Z,-67
2019-03-27T09:23:07.265Z,-68
2019-03-27T09:25:35.839Z,-68
2019-03-27T09:28:04.531Z,-71
2019-03-27T09:30:33.110Z,-72
2019-03-27T09:33:01.670Z,-73
2019-03-27T09:35:30.253Z,-71
2019-03-27T09:37:58.841Z,-70
2019-03-27T09:40:27.400Z,-70
2019-03-27T09:42:55.986Z,-73
2019-03-27T09:45:24.612Z,-71
2019-03-27T09:47:53.197Z,-71
2019-03-27T09:50:21.777Z,-71
2019-03-27T09:52:50.439Z,-70
2019-03-27T09:55:19.019Z,-71
2019-03-27T09:57:47.582Z,-72
2019-03-27T10:00:55.569Z,-72
2019-03-27T10:03:24.171Z,-71
2019-03-27T10:05:52.755Z,-71
2019-03-27T10:08:21.652Z,-71
2019-03-27T10:10:50.310Z,-73
2019-03-27T10:13:19.056Z,-71
2019-03-27T10:15:47.640Z,-69
2019-03-27T10:18:16.270Z,-73
2019-03-27T10:20:44.825Z,-70
2019-03-27T10:23:13.367Z,-72
2019-03-27T10:25:41.971Z,-71
2019-03-27T10:28:10.688Z,-71
2019-03-27T10:30:39.339Z,-70
2019-03-27T10:33:07.908Z,-70
2019-03-27T10:35:36.510Z,-70
2019-03-27T10:38:05.083Z,-70
2019-03-27T10:40:33.855Z,-71
2019-03-27T10:43:02.384Z,-72
2019-03-27T10:45:30.951Z,-72
2019-03-27T10:47:59.550Z,-71
2019-03-27T10:50:28.082Z,-71
2019-03-27T10:52:56.669Z,-72
2019-03-27T10:55:25.216Z,-71
2019-03-27T10:57:53.800Z,-72
2019-03-27T11:00:22.362Z,-71
2019-03-27T11:02:50.959Z,-72
2019-03-27T11:05:19.503Z,-72
2019-03-27T11:07:48.091Z,-71
2019-03-27T11:10:16.797Z,-72
2019-03-27T11:12:45.372Z,-71
2019-03-27T11:15:14.487Z,-74
2019-03-27T11:17:43.093Z,-72
2019-03-27T11:20:11.992Z,-72
2019-03-27T11:22:40.625Z,-72
2019-03-27T11:25:10.755Z,-72
2019-03-27T11:27:39.355Z,-72
2019-03-27T11:30:09.171Z,-70
2019-03-27T11:32:37.728Z,-72
2019-03-27T11:35:06.909Z,-71
2019-03-27T11:37:35.573Z,-73
2019-03-27T11:40:05.342Z,-71
2019-03-27T11:42:33.936Z,-73
2019-03-27T11:45:02.563Z,-72
2019-03-27T11:47:31.099Z,-72
2019-03-27T11:49:59.668Z,-71
2019-03-27T11:52:29.692Z,-72
2019-03-27T11:54:58.626Z,-72
2019-03-27T11:57:27.305Z,-72
2019-03-27T11:59:55.854Z,-73
2019-03-27T12:02:24.427Z,-74
2019-03-27T12:04:53.014Z,-71
2019-03-27T12:07:21.572Z,-70
2019-03-27T12:09:50.154Z,-74
2019-03-27T12:12:18.729Z,-71
2019-03-27T12:14:47.296Z,-70
2019-03-27T12:17:15.867Z,-71
2019-03-27T12:19:44.442Z,-73
2019-03-27T12:22:13.016Z,-72
2019-03-27T12:24:41.602Z,-69
2019-03-27T12:27:10.358Z,-70
2019-03-27T12:29:38.999Z,-69
2019-03-27T12:32:07.566Z,-71
2019-03-27T12:34:37.039Z,-70
2019-03-27T12:37:05.692Z,-70
2019-03-27T12:39:34.392Z,-72
2019-03-27T12:42:02.961Z,-72
2019-03-27T12:44:31.570Z,-71
2019-03-27T12:47:00.071Z,-73
2019-03-27T12:49:28.608Z,-71
2019-03-27T12:51:57.173Z,-71
2019-03-27T12:54:25.802Z,-69
2019-03-27T12:56:54.399Z,-71
2019-03-27T12:59:23.000Z,-74
2019-03-27T13:01:52.033Z,-73
2019-03-27T13:04:20.585Z,-73
2019-03-27T13:06:49.199Z,-70
2019-03-27T13:09:17.817Z,-72
2019-03-27T13:11:46.392Z,-73
2019-03-27T13:14:14.968Z,-73
2019-03-27T13:16:43.551Z,-70
2019-03-27T13:19:12.094Z,-74
2019-03-27T13:21:40.661Z,-73
2019-03-27T13:24:09.239Z,-71
2019-03-27T13:26:37.862Z,-72
2019-03-27T13:29:06.503Z,-72
2019-03-27T13:31:35.086Z,-73
2019-03-27T13:34:03.650Z,-73
2019-03-27T13:36:33.873Z,-72
2019-03-27T13:39:04.395Z,-73
2019-03-27T13:41:32.966Z,-72
2019-03-27T13:44:01.526Z,-73
2019-03-27T13:46:30.095Z,-74
2019-03-27T13:48:58.672Z,-75
2019-03-27T13:51:39.795Z,-72
2019-03-27T13:53:57.682Z,-72
2019-03-27T13:56:26.265Z,-73
2019-03-27T13:58:54.887Z,-72
2019-03-27T14:01:23.464Z,-73
2019-03-27T14:03:51.996Z,-71
2019-03-27T14:06:20.598Z,-71
2019-03-27T14:08:49.164Z,-73
2019-03-27T14:11:17.857Z,-71
2019-03-27T14:13:46.436Z,-71
2019-03-27T14:16:15.052Z,-72
2019-03-27T14:18:43.593Z,-73
2019-03-27T14:21:12.187Z,-72
2019-03-27T14:23:40.784Z,-74
2019-03-27T14:26:09.373Z,-74
2019-03-27T14:28:37.976Z,-74
2019-03-27T14:31:06.519Z,-73
2019-03-27T14:33:35.121Z,-73
2019-03-27T14:36:03.692Z,-74
2019-03-27T14:38:32.311Z,-73
2019-03-27T14:41:00.849Z,-73
2019-03-27T14:43:29.417Z,-72
2019-03-27T14:45:57.980Z,-74
2019-03-27T14:48:26.595Z,-74
2019-03-27T14:50:55.149Z,-72
2019-03-27T14:53:23.740Z,-70
2019-03-27T14:55:52.319Z,-72
2019-03-27T14:58:29.833Z,-71
2019-03-27T15:00:58.803Z,-71
2019-03-27T15:03:27.466Z,-73
2019-03-27T15:05:56.016Z,-72
2019-03-27T15:08:24.608Z,-70
2019-03-27T15:10:53.285Z,-73
2019-03-27T15:13:22.157Z,-72
2019-03-27T15:15:50.753Z,-74
2019-03-27T15:18:19.335Z,-69
2019-03-27T15:20:47.880Z,-71
2019-03-27T15:23:16.449Z,-72
2019-03-27T15:25:45.001Z,-73
2019-03-27T15:28:13.646Z,-72
2019-03-27T15:30:42.198Z,-70
2019-03-27T15:33:10.808Z,-69
2019-03-27T15:35:39.348Z,-72
2019-03-27T15:38:07.904Z,-71
2019-03-27T15:40:41.706Z,-69
2019-03-27T15:43:10.311Z,-70
2019-03-27T15:45:38.902Z,-70
2019-03-27T15:48:07.509Z,-70
2019-03-27T15:50:36.051Z,-69
2019-03-27T15:53:04.751Z,-70
2019-03-27T15:55:33.365Z,-71
2019-03-27T15:58:01.945Z,-73
2019-03-27T16:00:30.606Z,-72
2019-03-27T16:02:59.162Z,-75
2019-03-27T16:05:27.722Z,-72
2019-03-27T16:07:56.320Z,-71
2019-03-27T16:10:25.025Z,-72
2019-03-27T16:12:53.731Z,-70
2019-03-27T16:15:22.410Z,-73
2019-03-27T16:17:51.272Z,-72
2019-03-27T16:20:19.845Z,-70
2019-03-27T16:22:50.980Z,-71
2019-03-27T16:25:18.879Z,-72
2019-03-27T16:27:47.468Z,-71
2019-03-27T16:30:17.308Z,-73
2019-03-27T16:32:46.079Z,-70
2019-03-27T16:35:14.647Z,-70
2019-03-27T16:37:43.203Z,-71
2019-03-27T16:40:12.199Z,-69
2019-03-27T16:42:40.749Z,-72
2019-03-27T16:45:09.891Z,-72
2019-03-27T16:47:38.578Z,-71
2019-03-27T16:50:08.306Z,-72
2019-03-27T16:52:36.858Z,-70
2019-03-27T16:55:06.204Z,-72
2019-03-27T16:57:34.811Z,-70
2019-03-27T17:00:04.154Z,-71
2019-03-27T17:02:32.691Z,-71
2019-03-27T17:05:01.301Z,-75
2019-03-27T17:07:29.871Z,-73
2019-03-27T17:09:58.459Z,-71
2019-03-27T17:12:27.040Z,-71
2019-03-27T17:14:55.676Z,-73
2019-03-27T17:17:24.265Z,-72
2019-03-27T17:19:52.849Z,-70
2019-03-27T17:22:21.413Z,-71
2019-03-27T17:24:49.967Z,-73
2019-03-27T17:27:18.543Z,-71
2019-03-27T17:29:47.122Z,-71
2019-03-27T17:32:16.405Z,-73
2019-03-27T17:34:44.992Z,-72
2019-03-27T17:37:13.605Z,-71
2019-03-27T17:39:42.175Z,-71
2019-03-27T17:42:10.790Z,-72
2019-03-27T17:44:39.354Z,-75
2019-03-27T17:47:07.926Z,-72
2019-03-27T17:49:36.472Z,-71
2019-03-27T17:52:05.082Z,-74
2019-03-27T17:54:33.696Z,-71
2019-03-27T17:57:02.385Z,-70
2019-03-27T17:59:30.981Z,-71
2019-03-27T18:01:59.594Z,-70
2019-03-27T18:04:28.306Z,-74
2019-03-27T18:06:56.900Z,-71
2019-03-27T18:09:25.500Z,-72
2019-03-27T18:11:54.077Z,-71
2019-03-27T18:14:22.632Z,-74
2019-03-27T18:16:51.232Z,-71
2019-03-27T18:19:19.836Z,-72
2019-03-27T18:21:48.421Z,-73
2019-03-27T18:24:17.060Z,-71
2019-03-27T18:26:45.634Z,-70
2019-03-27T18:29:14.246Z,-71
2019-03-27T18:31:42.826Z,-72
2019-03-27T18:34:11.371Z,-72
2019-03-27T18:36:39.973Z,-70
2019-03-27T18:39:09.488Z,-72
2019-03-27T18:41:38.103Z,-71
2019-03-27T18:44:06.646Z,-72
2019-03-27T18:46:35.201Z,-72
2019-03-27T18:49:04.626Z,-73
2019-03-27T18:51:33.228Z,-72
2019-03-27T18:54:01.841Z,-71
2019-03-27T18:56:31.568Z,-70
2019-03-27T18:59:00.189Z,-74
2019-03-27T19:01:29.896Z,-75
2019-03-27T19:03:58.507Z,-72
2019-03-27T19:06:27.073Z,-73
2019-03-27T19:08:55.752Z,-74
2019-03-27T19:11:24.359Z,-75
2019-03-27T19:13:52.947Z,-72
2019-03-27T19:16:21.515Z,-73
2019-03-27T19:18:50.108Z,-74
2019-03-27T19:21:18.665Z,-74
2019-03-27T19:23:47.285Z,-73
2019-03-27T19:26:15.855Z,-71
2019-03-27T19:28:45.652Z,-72
2019-03-27T19:31:16.756Z,-73
2019-03-27T19:33:45.326Z,-73
2019-03-27T19:36:13.908Z,-71
2019-03-27T19:38:42.543Z,-72
2019-03-27T19:41:11.257Z,-75
2019-03-27T19:43:39.844Z,-73
2019-03-27T19:46:08.489Z,-72
2019-03-27T19:48:37.122Z,-72
2019-03-27T19:51:05.687Z,-70
2019-03-27T19:53:36.061Z,-72
2019-03-27T19:56:04.637Z,-71
2019-03-27T19:58:33.227Z,-75
2019-03-27T20:01:03.421Z,-73
2019-03-27T20:03:34.652Z,-71
2019-03-27T20:06:02.522Z,-71
2019-03-27T20:08:31.181Z,-73
2019-03-27T20:10:59.745Z,-72
2019-03-27T20:13:28.316Z,-72
2019-03-27T20:15:56.959Z,-71
2019-03-27T20:18:25.531Z,-73
2019-03-27T20:20:54.155Z,-73
2019-03-27T20:23:22.746Z,-74
2019-03-27T20:25:51.407Z,-72
2019-03-27T20:28:19.979Z,-72
2019-03-27T20:30:48.554Z,-74
2019-03-27T20:33:17.138Z,-74
2019-03-27T20:35:45.763Z,-75
2019-03-27T20:38:14.303Z,-72
2019-03-27T20:40:43.009Z,-72
2019-03-27T20:43:11.598Z,-70
2019-03-27T20:45:40.309Z,-73
2019-03-27T20:48:08.924Z,-73
2019-03-27T20:50:37.545Z,-73
2019-03-27T20:53:06.145Z,-72
2019-03-27T20:55:34.757Z,-74
2019-03-27T20:58:03.326Z,-75
2019-03-27T21:00:32.577Z,-72
2019-03-27T21:03:02.101Z,-72
2019-03-27T21:05:30.706Z,-71
2019-03-27T21:07:59.286Z,-72
2019-03-27T21:10:28.214Z,-73
2019-03-27T21:12:56.803Z,-73
2019-03-27T21:15:25.411Z,-71
2019-03-27T21:17:54.103Z,-72
2019-03-27T21:20:22.759Z,-73
2019-03-27T21:22:51.337Z,-72
2019-03-27T21:25:19.905Z,-74
2019-03-27T21:27:48.508Z,-72
2019-03-27T21:30:17.243Z,-71
2019-03-27T21:32:45.833Z,-71
2019-03-27T21:35:14.445Z,-73
2019-03-27T21:37:42.974Z,-73
2019-03-27T21:40:11.712Z,-72
2019-03-27T21:42:40.313Z,-71
2019-03-27T21:45:09.625Z,-71
2019-03-27T21:47:38.186Z,-72
2019-03-27T21:50:07.585Z,-72
2019-03-27T21:52:36.197Z,-72
2019-03-27T21:55:05.185Z,-72
2019-03-27T21:57:33.792Z,-72
2019-03-27T22:00:02.787Z,-73
2019-03-27T22:02:31.344Z,-73
2019-03-27T22:05:00.042Z,-71
2019-03-27T22:07:28.612Z,-70
2019-03-27T22:09:57.152Z,-73
2019-03-27T22:12:25.770Z,-72
2019-03-27T22:14:57.215Z,-72
2019-03-27T22:17:25.816Z,-71
2019-03-27T22:19:54.408Z,-70
2019-03-27T22:22:23.039Z,-71
2019-03-27T22:24:51.604Z,-72
2019-03-27T22:27:20.210Z,-72
2019-03-27T22:29:48.740Z,-73
2019-03-27T22:32:17.326Z,-71
2019-03-27T22:34:45.904Z,-70
2019-03-27T22:37:14.474Z,-71
2019-03-27T22:39:43.058Z,-71
2019-03-27T22:42:11.660Z,-71
2019-03-27T22:44:40.221Z,-72
2019-03-27T22:47:08.823Z,-71
2019-03-27T22:49:37.391Z,-68
2019-03-27T22:52:05.928Z,-69
2019-03-27T22:54:34.476Z,-70
2019-03-27T22:57:03.107Z,-71
2019-03-27T22:59:31.650Z,-73
2019-03-27T23:02:00.242Z,-72
2019-03-27T23:04:28.843Z,-70
2019-03-27T23:06:57.425Z,-72
2019-03-27T23:09:26.009Z,-73
2019-03-27T23:11:54.617Z,-73
2019-03-27T23:14:23.223Z,-70
2019-03-27T23:16:51.760Z,-71
2019-03-27T23:19:20.382Z,-74
2019-03-27T23:21:48.930Z,-74
2019-03-27T23:24:17.516Z,-73
2019-03-27T23:26:46.059Z,-70
2019-03-27T23:29:14.657Z,-69
2019-03-27T23:31:43.246Z,-71
2019-03-27T23:34:11.944Z,-73
2019-03-27T23:36:40.448Z,-74
2019-03-27T23:39:09.557Z,-71
2019-03-27T23:41:38.241Z,-71
2019-03-27T23:44:06.803Z,-71
2019-03-27T23:46:35.370Z,-70
2019-03-27T23:49:04.123Z,-72
2019-03-27T23:51:32.662Z,-71
2019-03-27T23:54:01.249Z,-71
2019-03-27T23:56:29.779Z,-70
2019-03-27T23:58:58.328Z,-71
